Orange City, IA

3:37 AM CDT on October 01, 2016 (GMT -0500)
Orange City Municipal

Weather History for KORC - January, 2012

Change the Weather History Date:

Monday, January 16, 2012

  Actual Average Record
Temperature  
Mean Temperature 28 °F -  
Max Temperature 35 °F 26 °F 48 °F (1951)
Min Temperature 19 °F 10 °F -20 °F (1953)
Degree Days  
Heating Degree Days 37    
Moisture  
Dew Point 18 °F    
Average Humidity 69    
Maximum Humidity 86    
Minimum Humidity 47    
Precipitation  
Precipitation 0.00 in - - ()
Sea Level Pressure  
Sea Level Pressure 29.77 in    
Wind  
Wind Speed 10 mph (North)    
Max Wind Speed 18 mph    
Max Gust Speed 26 mph    
Visibility 10 miles    
Events      
Averages and records for this station are not official NWS values.
T = Trace of Precipitation, MM = Missing Value Source: NWS Daily Summary

Daily Weather History Graph

Daily Weather History Graph

Search for Another Location

Airport or City:

Trip Planner

Search our weather history database for the weather conditions in past years. The results will help you decide how hot, cold, wet, or windy it might be!

Date:

Astronomy

Jan. 16, 2012 Rise Set
Actual Time 7:52 AM CST 5:15 PM CST
Civil Twilight 7:21 AM CST 5:47 PM CST
Nautical Twilight 6:46 AM CST 6:22 PM CST
Astronomical Twilight 6:12 AM CST 6:56 PM CST
Moon 12:59 AM CST (1/16) 11:32 AM CST (1/16)
Length of Visible Light 10h 26m
Length of Day
9h 23m
Last Quarter, 46% of the Moon is Illuminated
Jan 16
Last Quarter
Jan 23
New
Jan 30
First Quarter
Feb 7
Full
Feb 14
Last Quarter

Hourly Weather History & Observations

Time (CST) Temp. Windchill Dew Point Humidity Pressure Visibility Wind Dir Wind Speed Gust Speed Precip Events Conditions
12:15 AM 33.8 °F 28.6 °F 23.0 °F 65% 29.67 in 10.0 mi NNW 5.8 mph - N/A   Clear
12:35 AM 35.6 °F 29.2 °F 24.8 °F 65% 29.67 in 10.0 mi NNW 8.1 mph - N/A   Clear
12:55 AM 33.8 °F 27.7 °F 24.8 °F 70% 29.68 in 10.0 mi NNW 6.9 mph - N/A   Clear
1:15 AM 32.0 °F 23.6 °F 24.8 °F 75% 29.70 in 10.0 mi NW 10.4 mph - N/A   Clear
1:35 AM 32.0 °F 23.0 °F 24.8 °F 75% 29.71 in 10.0 mi NW 11.5 mph - N/A   Clear
1:55 AM 33.8 °F 25.8 °F 24.8 °F 70% 29.70 in 10.0 mi NNW 10.4 mph - N/A   Clear
2:15 AM 33.8 °F 25.8 °F 24.8 °F 70% 29.72 in 10.0 mi NNW 10.4 mph - N/A   Clear
2:35 AM 32.0 °F 25.6 °F 24.8 °F 75% 29.72 in 10.0 mi North 6.9 mph - N/A   Clear
2:55 AM 32.0 °F 25.6 °F 24.8 °F 75% 29.72 in 10.0 mi North 6.9 mph - N/A   Clear
3:15 AM 32.0 °F 27.5 °F 24.8 °F 75% 29.73 in 10.0 mi North 4.6 mph - N/A   Clear
3:35 AM 30.2 °F 24.3 °F 24.8 °F 80% 29.74 in 10.0 mi NNW 5.8 mph - N/A   Clear
3:55 AM 30.2 °F 24.3 °F 24.8 °F 80% 29.75 in 10.0 mi NNW 5.8 mph - N/A   Clear
4:15 AM 30.2 °F 23.4 °F 24.8 °F 80% 29.76 in 10.0 mi North 6.9 mph - N/A   Clear
4:35 AM 30.2 °F 22.6 °F 24.8 °F 80% 29.75 in 10.0 mi NNE 8.1 mph - N/A   Clear
4:55 AM 30.2 °F 23.4 °F 24.8 °F 80% 29.76 in 10.0 mi NNE 6.9 mph - N/A   Clear
5:15 AM 30.2 °F 21.9 °F 24.8 °F 80% 29.76 in 10.0 mi NNE 9.2 mph - N/A   Clear
5:35 AM 30.2 °F 22.6 °F 26.6 °F 86% 29.76 in 10.0 mi NNE 8.1 mph - N/A   Clear
5:55 AM 30.2 °F 19.8 °F 26.6 °F 86% 29.75 in 10.0 mi NNE 13.8 mph 18.4 mph N/A   Clear
6:15 AM 28.4 °F 17.0 °F 24.8 °F 86% 29.75 in 10.0 mi NNE 15.0 mph 21.9 mph N/A   Clear
6:35 AM 28.4 °F 17.5 °F 21.2 °F 74% 29.75 in 10.0 mi NNE 13.8 mph 21.9 mph N/A   Clear
6:55 AM 26.6 °F 15.2 °F 21.2 °F 80% 29.76 in 10.0 mi North 13.8 mph 25.3 mph N/A   Clear
7:15 AM 26.6 °F 15.7 °F 19.4 °F 74% 29.76 in 10.0 mi NNE 12.7 mph 18.4 mph N/A   Clear
7:35 AM 24.8 °F 14.6 °F 19.4 °F 80% 29.77 in 10.0 mi NNE 10.4 mph 17.3 mph N/A   Clear
7:55 AM 24.8 °F 12.4 °F 19.4 °F 80% 29.77 in 10.0 mi NNE 15.0 mph 20.7 mph N/A   Clear
8:15 AM 24.8 °F 14.6 °F 19.4 °F 80% 29.77 in 10.0 mi NNE 10.4 mph 20.7 mph N/A   Clear
8:35 AM 23.0 °F 10.6 °F 19.4 °F 86% 29.78 in 10.0 mi NNE 13.8 mph 21.9 mph N/A   Clear
8:55 AM 21.2 °F 7.8 °F 17.6 °F 86% 29.78 in 10.0 mi NNE 15.0 mph 23.0 mph N/A   Clear
9:15 AM 21.2 °F 9.5 °F 17.6 °F 86% 29.80 in 10.0 mi North 11.5 mph 19.6 mph N/A   Clear
9:35 AM 21.2 °F 7.8 °F 15.8 °F 80% 29.80 in 10.0 mi North 15.0 mph 24.2 mph N/A   Clear
9:55 AM 23.0 °F 10.6 °F 17.6 °F 80% 29.80 in 10.0 mi North 13.8 mph 19.6 mph N/A   Clear
10:15 AM 23.0 °F 8.7 °F 15.8 °F 74% 29.80 in 10.0 mi NNE 18.4 mph 24.2 mph N/A   Clear
10:35 AM 23.0 °F 9.6 °F 15.8 °F 74% 29.80 in 10.0 mi NNE 16.1 mph 26.5 mph N/A   Clear
10:55 AM 24.8 °F 13.4 °F 15.8 °F 69% 29.80 in 10.0 mi NNE 12.7 mph 23.0 mph N/A   Clear
11:15 AM 24.8 °F 14.0 °F 14.0 °F 64% 29.81 in 10.0 mi North 11.5 mph 20.7 mph N/A   Clear
11:35 AM 26.6 °F 15.7 °F 12.2 °F 55% 29.82 in 10.0 mi North 12.7 mph 18.4 mph N/A   Clear
11:55 AM 24.8 °F 14.0 °F 12.2 °F 59% 29.82 in 10.0 mi North 11.5 mph 17.3 mph N/A   Clear
12:15 PM 24.8 °F 14.6 °F 12.2 °F 59% 29.81 in 10.0 mi North 10.4 mph 18.4 mph N/A   Clear
12:35 PM 24.8 °F 13.4 °F 12.2 °F 59% 29.81 in 10.0 mi NNW 12.7 mph 17.3 mph N/A   Clear
12:55 PM 24.8 °F 14.6 °F 12.2 °F 59% 29.82 in 10.0 mi NNW 10.4 mph 17.3 mph N/A   Clear
1:15 PM 24.8 °F 14.0 °F 10.4 °F 54% 29.81 in 10.0 mi North 11.5 mph 18.4 mph N/A   Clear
1:35 PM 26.6 °F 15.7 °F 12.2 °F 55% 29.79 in 10.0 mi North 12.7 mph 19.6 mph N/A   Clear
2:15 PM 26.6 °F 14.3 °F 10.4 °F 51% 29.78 in 10.0 mi North 16.1 mph 21.9 mph N/A   Clear
2:35 PM 26.6 °F 15.2 °F 10.4 °F 51% 29.78 in 10.0 mi North 13.8 mph 18.4 mph N/A   Clear
2:55 PM 28.4 °F 17.0 °F 10.4 °F 47% 29.78 in 10.0 mi North 15.0 mph 19.6 mph N/A   Clear
3:15 PM 26.6 °F 15.2 °F 10.4 °F 51% 29.79 in 10.0 mi North 13.8 mph 18.4 mph N/A   Clear
3:35 PM 26.6 °F 15.7 °F 10.4 °F 51% 29.80 in 10.0 mi North 12.7 mph 17.3 mph N/A   Clear
3:55 PM 26.6 °F 16.2 °F 10.4 °F 51% 29.81 in 10.0 mi North 11.5 mph 18.4 mph N/A   Clear
4:15 PM 26.6 °F 16.2 °F 10.4 °F 51% 29.80 in 10.0 mi North 11.5 mph 20.7 mph N/A   Clear
4:35 PM 24.8 °F 12.4 °F 10.4 °F 54% 29.81 in 10.0 mi North 15.0 mph 21.9 mph N/A   Clear
4:55 PM 24.8 °F 12.4 °F 10.4 °F 54% 29.81 in 10.0 mi North 15.0 mph 25.3 mph N/A   Clear
5:15 PM 23.0 °F 10.6 °F 10.4 °F 59% 29.82 in 10.0 mi North 13.8 mph 20.7 mph N/A   Clear
5:35 PM 21.2 °F 7.8 °F 10.4 °F 63% 29.82 in 10.0 mi North 15.0 mph 24.2 mph N/A   Clear
5:55 PM 21.2 °F 7.8 °F 10.4 °F 63% 29.83 in 10.0 mi North 15.0 mph 24.2 mph N/A   Clear
6:15 PM 19.4 °F 7.2 °F 10.4 °F 68% 29.84 in 10.0 mi North 11.5 mph 25.3 mph N/A   Clear
6:35 PM 19.4 °F 6.0 °F 10.4 °F 68% 29.84 in 10.0 mi NNE 13.8 mph 23.0 mph N/A   Clear
6:55 PM 19.4 °F 7.9 °F 10.4 °F 68% 29.84 in 10.0 mi NNE 10.4 mph 25.3 mph N/A   Clear
7:15 PM 19.4 °F 6.6 °F 10.4 °F 68% 29.86 in 10.0 mi NNE 12.7 mph 21.9 mph N/A   Clear
7:35 PM 19.4 °F 7.2 °F 10.4 °F 68% 29.88 in 10.0 mi NNE 11.5 mph 19.6 mph N/A   Clear
8:15 PM 19.4 °F 7.9 °F 10.4 °F 68% 29.89 in 10.0 mi North 10.4 mph 18.4 mph N/A   Clear
8:35 PM 17.6 °F 7.3 °F 10.4 °F 73% 29.90 in 10.0 mi North 8.1 mph - N/A   Clear
8:55 PM 17.6 °F 6.4 °F 8.6 °F 68% 29.90 in 10.0 mi North 9.2 mph 17.3 mph N/A   Clear
9:15 PM 17.6 °F 5.7 °F 8.6 °F 68% 29.91 in 10.0 mi North 10.4 mph 19.6 mph N/A   Clear
9:35 PM 17.6 °F 5.0 °F 8.6 °F 68% 29.90 in 10.0 mi North 11.5 mph 20.7 mph N/A   Clear
9:55 PM 17.6 °F 5.7 °F 8.6 °F 68% 29.91 in 10.0 mi North 10.4 mph 19.6 mph N/A   Scattered Clouds
10:35 PM 17.6 °F 2.2 °F 8.6 °F 68% 29.89 in 10.0 mi North 17.3 mph 25.3 mph N/A   Scattered Clouds
10:55 PM 17.6 °F 3.2 °F 10.4 °F 73% 29.90 in 10.0 mi North 15.0 mph 26.5 mph N/A   Mostly Cloudy
11:15 PM 15.8 °F -1.1 °F 10.4 °F 79% 29.90 in 10.0 mi North 19.6 mph 24.2 mph N/A   Overcast
11:35 PM 15.8 °F 0.3 °F 8.6 °F 73% 29.91 in 10.0 mi North 16.1 mph 23.0 mph N/A   Mostly Cloudy